sensor_id;sensor_type;location;lat;lon;timestamp;temperature;humidity
19892;DHT22;10108;50.142;8.724;2022-11-15T00:02:18;10.20;99.90
19892;DHT22;10108;50.142;8.724;2022-11-15T00:05:02;10.20;99.90
19892;DHT22;10108;50.142;8.724;2022-11-15T00:07:47;10.20;99.90
19892;DHT22;10108;50.142;8.724;2022-11-15T00:10:32;10.10;99.90
19892;DHT22;10108;50.142;8.724;2022-11-15T00:13:16;10.10;99.90
19892;DHT22;10108;50.142;8.724;2022-11-15T00:16:01;10.10;99.90
19892;DHT22;10108;50.142;8.724;2022-11-15T00:18:45;10.10;99.90
19892;DHT22;10108;50.142;8.724;2022-11-15T00:21:30;10.10;99.90
19892;DHT22;10108;50.142;8.724;2022-11-15T00:24:14;10.10;99.90
19892;DHT22;10108;50.142;8.724;2022-11-15T00:26:59;10.20;99.90
19892;DHT22;10108;50.142;8.724;2022-11-15T00:29:43;10.10;99.90
19892;DHT22;10108;50.142;8.724;2022-11-15T00:32:31;10.10;99.90
19892;DHT22;10108;50.142;8.724;2022-11-15T00:35:16;10.00;99.90
19892;DHT22;10108;50.142;8.724;2022-11-15T00:38:01;10.00;99.90
19892;DHT22;10108;50.142;8.724;2022-11-15T00:40:46;10.10;99.90
19892;DHT22;10108;50.142;8.724;2022-11-15T00:43:31;10.10;99.90
19892;DHT22;10108;50.142;8.724;2022-11-15T00:46:16;10.00;99.90
19892;DHT22;10108;50.142;8.724;2022-11-15T00:49:00;10.00;99.90
19892;DHT22;10108;50.142;8.724;2022-11-15T00:51:45;9.90;99.90
19892;DHT22;10108;50.142;8.724;2022-11-15T00:54:29;10.00;99.90
19892;DHT22;10108;50.142;8.724;2022-11-15T00:57:14;9.90;99.90
19892;DHT22;10108;50.142;8.724;2022-11-15T00:59:58;10.00;99.90
19892;DHT22;10108;50.142;8.724;2022-11-15T01:02:43;10.00;99.90
19892;DHT22;10108;50.142;8.724;2022-11-15T01:05:28;10.10;99.90
19892;DHT22;10108;50.142;8.724;2022-11-15T01:08:14;10.10;99.90
19892;DHT22;10108;50.142;8.724;2022-11-15T01:11:08;10.10;99.90
19892;DHT22;10108;50.142;8.724;2022-11-15T01:13:54;10.10;99.90
19892;DHT22;10108;50.142;8.724;2022-11-15T01:16:39;10.20;99.90
19892;DHT22;10108;50.142;8.724;2022-11-15T01:19:24;10.10;99.90
19892;DHT22;10108;50.142;8.724;2022-11-15T01:22:08;10.10;99.90
19892;DHT22;10108;50.142;8.724;2022-11-15T01:24:52;10.20;99.90
19892;DHT22;10108;50.142;8.724;2022-11-15T01:27:37;10.10;99.90
19892;DHT22;10108;50.142;8.724;2022-11-15T01:30:21;10.10;99.90
19892;DHT22;10108;50.142;8.724;2022-11-15T01:33:06;10.00;99.90
19892;DHT22;10108;50.142;8.724;2022-11-15T01:35:50;9.90;99.90
19892;DHT22;10108;50.142;8.724;2022-11-15T01:38:35;9.90;99.90
19892;DHT22;10108;50.142;8.724;2022-11-15T01:41:22;9.90;99.90
19892;DHT22;10108;50.142;8.724;2022-11-15T01:47:36;9.80;99.90
19892;DHT22;10108;50.142;8.724;2022-11-15T01:50:27;9.90;99.90
19892;DHT22;10108;50.142;8.724;2022-11-15T01:53:13;9.80;99.90
19892;DHT22;10108;50.142;8.724;2022-11-15T01:55:59;9.90;99.90
19892;DHT22;10108;50.142;8.724;2022-11-15T01:58:46;9.90;99.90
19892;DHT22;10108;50.142;8.724;2022-11-15T02:01:33;9.90;99.90
19892;DHT22;10108;50.142;8.724;2022-11-15T02:04:29;10.00;99.90
19892;DHT22;10108;50.142;8.724;2022-11-15T02:07:17;10.10;99.90
19892;DHT22;10108;50.142;8.724;2022-11-15T02:10:17;10.10;99.90
19892;DHT22;10108;50.142;8.724;2022-11-15T02:13:02;10.10;99.90
19892;DHT22;10108;50.142;8.724;2022-11-15T02:16:03;10.20;99.90
19892;DHT22;10108;50.142;8.724;2022-11-15T02:25:54;10.30;99.90
19892;DHT22;10108;50.142;8.724;2022-11-15T02:32:07;10.40;99.90
19892;DHT22;10108;50.142;8.724;2022-11-15T02:37:58;10.40;99.90
19892;DHT22;10108;50.142;8.724;2022-11-15T02:40:54;10.50;99.90
19892;DHT22;10108;50.142;8.724;2022-11-15T02:43:59;10.50;99.90
19892;DHT22;10108;50.142;8.724;2022-11-15T02:47:03;10.50;99.90
19892;DHT22;10108;50.142;8.724;2022-11-15T02:50:23;10.50;99.90
19892;DHT22;10108;50.142;8.724;2022-11-15T02:53:07;10.50;99.90
19892;DHT22;10108;50.142;8.724;2022-11-15T02:55:53;10.50;99.90
19892;DHT22;10108;50.142;8.724;2022-11-15T03:01:48;10.50;99.90
19892;DHT22;10108;50.142;8.724;2022-11-15T03:04:57;10.50;99.90
19892;DHT22;10108;50.142;8.724;2022-11-15T03:10:43;10.40;99.90
19892;DHT22;10108;50.142;8.724;2022-11-15T03:13:57;10.40;99.90
19892;DHT22;10108;50.142;8.724;2022-11-15T03:16:48;10.30;99.90
19892;DHT22;10108;50.142;8.724;2022-11-15T03:19:43;10.30;99.90
19892;DHT22;10108;50.142;8.724;2022-11-15T03:22:30;10.30;99.90
19892;DHT22;10108;50.142;8.724;2022-11-15T03:25:22;10.20;99.90
19892;DHT22;10108;50.142;8.724;2022-11-15T03:28:10;10.20;99.90
19892;DHT22;10108;50.142;8.724;2022-11-15T03:30:56;10.10;99.90
19892;DHT22;10108;50.142;8.724;2022-11-15T03:33:43;10.10;99.90
19892;DHT22;10108;50.142;8.724;2022-11-15T03:36:27;10.10;99.90
19892;DHT22;10108;50.142;8.724;2022-11-15T03:39:14;10.10;99.90
19892;DHT22;10108;50.142;8.724;2022-11-15T03:42:21;10.10;99.90
19892;DHT22;10108;50.142;8.724;2022-11-15T03:45:14;10.10;99.90
19892;DHT22;10108;50.142;8.724;2022-11-15T03:48:14;10.10;99.90
19892;DHT22;10108;50.142;8.724;2022-11-15T03:51:00;10.10;99.90
19892;DHT22;10108;50.142;8.724;2022-11-15T03:53:45;10.10;99.90
19892;DHT22;10108;50.142;8.724;2022-11-15T03:56:30;10.10;99.90
19892;DHT22;10108;50.142;8.724;2022-11-15T03:59:15;10.00;99.90
19892;DHT22;10108;50.142;8.724;2022-11-15T04:01:59;9.90;99.90
19892;DHT22;10108;50.142;8.724;2022-11-15T04:04:44;10.00;99.90
19892;DHT22;10108;50.142;8.724;2022-11-15T04:07:28;10.00;99.90
19892;DHT22;10108;50.142;8.724;2022-11-15T04:10:13;10.00;99.90
19892;DHT22;10108;50.142;8.724;2022-11-15T04:12:57;10.00;99.90
19892;DHT22;10108;50.142;8.724;2022-11-15T04:15:42;10.00;99.90
19892;DHT22;10108;50.142;8.724;2022-11-15T04:18:26;10.00;99.90
19892;DHT22;10108;50.142;8.724;2022-11-15T04:21:10;10.00;99.90
19892;DHT22;10108;50.142;8.724;2022-11-15T04:24:14;10.10;99.90
19892;DHT22;10108;50.142;8.724;2022-11-15T04:26:59;10.10;99.90
19892;DHT22;10108;50.142;8.724;2022-11-15T04:29:43;10.10;99.90
19892;DHT22;10108;50.142;8.724;2022-11-15T04:32:28;10.10;99.90
19892;DHT22;10108;50.142;8.724;2022-11-15T04:35:12;10.10;99.90
19892;DHT22;10108;50.142;8.724;2022-11-15T04:37:57;10.20;99.90
19892;DHT22;10108;50.142;8.724;2022-11-15T04:40:42;10.20;99.90
19892;DHT22;10108;50.142;8.724;2022-11-15T04:43:27;10.20;99.90
19892;DHT22;10108;50.142;8.724;2022-11-15T04:46:12;10.20;99.90
19892;DHT22;10108;50.142;8.724;2022-11-15T04:48:57;10.20;99.90
19892;DHT22;10108;50.142;8.724;2022-11-15T04:51:41;10.20;99.90
19892;DHT22;10108;50.142;8.724;2022-11-15T04:54:26;10.20;99.90
19892;DHT22;10108;50.142;8.724;2022-11-15T04:57:10;10.20;99.90
19892;DHT22;10108;50.142;8.724;2022-11-15T04:59:55;10.20;99.90
19892;DHT22;10108;50.142;8.724;2022-11-15T05:02:39;10.30;99.90
19892;DHT22;10108;50.142;8.724;2022-11-15T05:05:43;10.20;99.90
19892;DHT22;10108;50.142;8.724;2022-11-15T05:08:27;10.30;99.90
19892;DHT22;10108;50.142;8.724;2022-11-15T05:11:12;10.30;99.90
19892;DHT22;10108;50.142;8.724;2022-11-15T05:13:57;10.30;99.90
19892;DHT22;10108;50.142;8.724;2022-11-15T05:16:42;10.30;99.90
19892;DHT22;10108;50.142;8.724;2022-11-15T05:19:26;10.30;99.90
19892;DHT22;10108;50.142;8.724;2022-11-15T05:22:11;10.30;99.90
19892;DHT22;10108;50.142;8.724;2022-11-15T05:24:55;10.30;99.90
19892;DHT22;10108;50.142;8.724;2022-11-15T05:27:40;10.30;99.90
19892;DHT22;10108;50.142;8.724;2022-11-15T05:30:24;10.20;99.90
19892;DHT22;10108;50.142;8.724;2022-11-15T05:33:09;10.10;99.90
19892;DHT22;10108;50.142;8.724;2022-11-15T05:35:59;10.10;99.90
19892;DHT22;10108;50.142;8.724;2022-11-15T05:38:46;10.00;99.90
19892;DHT22;10108;50.142;8.724;2022-11-15T05:41:44;10.00;99.90
19892;DHT22;10108;50.142;8.724;2022-11-15T05:44:31;10.00;99.90
19892;DHT22;10108;50.142;8.724;2022-11-15T05:47:19;9.90;99.90
19892;DHT22;10108;50.142;8.724;2022-11-15T05:50:06;9.90;99.90
19892;DHT22;10108;50.142;8.724;2022-11-15T05:52:51;9.80;99.90
19892;DHT22;10108;50.142;8.724;2022-11-15T05:55:38;9.80;99.90
19892;DHT22;10108;50.142;8.724;2022-11-15T05:58:23;9.80;99.90
19892;DHT22;10108;50.142;8.724;2022-11-15T06:01:08;9.80;99.90
19892;DHT22;10108;50.142;8.724;2022-11-15T06:03:52;9.80;99.90
19892;DHT22;10108;50.142;8.724;2022-11-15T06:06:37;9.80;99.90
19892;DHT22;10108;50.142;8.724;2022-11-15T06:09:22;9.90;99.90
19892;DHT22;10108;50.142;8.724;2022-11-15T06:12:06;9.90;99.90
19892;DHT22;10108;50.142;8.724;2022-11-15T06:14:51;9.90;99.90
19892;DHT22;10108;50.142;8.724;2022-11-15T06:17:35;9.90;99.90
19892;DHT22;10108;50.142;8.724;2022-11-15T06:20:20;9.90;99.90
19892;DHT22;10108;50.142;8.724;2022-11-15T06:23:04;10.00;99.90
19892;DHT22;10108;50.142;8.724;2022-11-15T06:25:49;10.00;99.90
19892;DHT22;10108;50.142;8.724;2022-11-15T06:28:34;10.00;99.90
19892;DHT22;10108;50.142;8.724;2022-11-15T06:31:18;10.10;99.90
19892;DHT22;10108;50.142;8.724;2022-11-15T06:34:03;10.10;99.90
19892;DHT22;10108;50.142;8.724;2022-11-15T06:36:47;10.20;99.90
19892;DHT22;10108;50.142;8.724;2022-11-15T06:39:32;10.20;99.90
19892;DHT22;10108;50.142;8.724;2022-11-15T06:42:16;10.20;99.90
19892;DHT22;10108;50.142;8.724;2022-11-15T06:45:01;10.20;99.90
19892;DHT22;10108;50.142;8.724;2022-11-15T06:47:46;10.30;99.90
19892;DHT22;10108;50.142;8.724;2022-11-15T06:50:31;10.30;99.90
19892;DHT22;10108;50.142;8.724;2022-11-15T06:53:15;10.30;99.90
19892;DHT22;10108;50.142;8.724;2022-11-15T06:56:01;10.30;99.90
19892;DHT22;10108;50.142;8.724;2022-11-15T06:58:46;10.40;99.90
19892;DHT22;10108;50.142;8.724;2022-11-15T07:01:31;10.40;99.90
19892;DHT22;10108;50.142;8.724;2022-11-15T07:04:16;10.40;99.90
19892;DHT22;10108;50.142;8.724;2022-11-15T07:07:00;10.50;99.90
19892;DHT22;10108;50.142;8.724;2022-11-15T07:09:45;10.50;99.90
19892;DHT22;10108;50.142;8.724;2022-11-15T07:12:29;10.50;99.90
19892;DHT22;10108;50.142;8.724;2022-11-15T07:15:19;10.50;99.90
19892;DHT22;10108;50.142;8.724;2022-11-15T07:18:04;10.50;99.90
19892;DHT22;10108;50.142;8.724;2022-11-15T07:20:49;10.50;99.90
19892;DHT22;10108;50.142;8.724;2022-11-15T07:23:36;10.40;99.90
19892;DHT22;10108;50.142;8.724;2022-11-15T07:26:21;10.40;99.90
19892;DHT22;10108;50.142;8.724;2022-11-15T07:29:05;10.40;99.90
19892;DHT22;10108;50.142;8.724;2022-11-15T07:31:50;10.40;99.90
19892;DHT22;10108;50.142;8.724;2022-11-15T07:34:35;10.40;99.90
19892;DHT22;10108;50.142;8.724;2022-11-15T07:37:19;10.40;99.90
19892;DHT22;10108;50.142;8.724;2022-11-15T07:40:04;10.40;99.90
19892;DHT22;10108;50.142;8.724;2022-11-15T07:42:49;10.40;99.90
19892;DHT22;10108;50.142;8.724;2022-11-15T07:45:44;10.40;99.90
19892;DHT22;10108;50.142;8.724;2022-11-15T07:48:29;10.50;99.90
19892;DHT22;10108;50.142;8.724;2022-11-15T07:51:16;10.50;99.90
19892;DHT22;10108;50.142;8.724;2022-11-15T07:54:01;10.60;99.90
19892;DHT22;10108;50.142;8.724;2022-11-15T07:56:45;10.60;99.90
19892;DHT22;10108;50.142;8.724;2022-11-15T07:59:30;10.60;99.90
19892;DHT22;10108;50.142;8.724;2022-11-15T08:02:15;10.60;99.90
19892;DHT22;10108;50.142;8.724;2022-11-15T08:05:02;10.70;99.90
19892;DHT22;10108;50.142;8.724;2022-11-15T08:07:47;10.70;99.90
19892;DHT22;10108;50.142;8.724;2022-11-15T08:10:33;10.70;99.90
19892;DHT22;10108;50.142;8.724;2022-11-15T08:13:18;10.80;99.90
19892;DHT22;10108;50.142;8.724;2022-11-15T08:16:04;10.90;99.90
19892;DHT22;10108;50.142;8.724;2022-11-15T08:18:49;10.90;99.90
19892;DHT22;10108;50.142;8.724;2022-11-15T08:21:34;10.90;99.90
19892;DHT22;10108;50.142;8.724;2022-11-15T08:24:19;10.90;99.90
19892;DHT22;10108;50.142;8.724;2022-11-15T08:27:04;10.90;99.90
19892;DHT22;10108;50.142;8.724;2022-11-15T08:29:49;10.90;99.90
19892;DHT22;10108;50.142;8.724;2022-11-15T08:32:35;10.90;99.90
19892;DHT22;10108;50.142;8.724;2022-11-15T08:35:20;10.90;99.90
19892;DHT22;10108;50.142;8.724;2022-11-15T08:38:05;10.90;99.90
19892;DHT22;10108;50.142;8.724;2022-11-15T08:40:58;10.90;99.90
19892;DHT22;10108;50.142;8.724;2022-11-15T08:43:43;10.90;99.90
19892;DHT22;10108;50.142;8.724;2022-11-15T08:46:28;11.00;99.90
19892;DHT22;10108;50.142;8.724;2022-11-15T08:49:12;11.10;99.90
19892;DHT22;10108;50.142;8.724;2022-11-15T08:51:57;11.10;99.90
19892;DHT22;10108;50.142;8.724;2022-11-15T08:54:42;11.10;99.90
19892;DHT22;10108;50.142;8.724;2022-11-15T08:57:29;11.20;99.90
19892;DHT22;10108;50.142;8.724;2022-11-15T09:00:15;11.20;99.90
19892;DHT22;10108;50.142;8.724;2022-11-15T09:02:59;11.30;99.90
19892;DHT22;10108;50.142;8.724;2022-11-15T09:05:44;11.30;99.90
19892;DHT22;10108;50.142;8.724;2022-11-15T09:08:31;11.40;99.90
19892;DHT22;10108;50.142;8.724;2022-11-15T09:11:16;11.40;99.90
19892;DHT22;10108;50.142;8.724;2022-11-15T09:14:04;11.40;99.90
19892;DHT22;10108;50.142;8.724;2022-11-15T09:16:48;11.50;99.90
19892;DHT22;10108;50.142;8.724;2022-11-15T09:19:33;11.50;99.90
19892;DHT22;10108;50.142;8.724;2022-11-15T09:22:17;11.50;99.90
19892;DHT22;10108;50.142;8.724;2022-11-15T09:25:03;11.60;99.90
19892;DHT22;10108;50.142;8.724;2022-11-15T09:27:48;11.60;99.90
19892;DHT22;10108;50.142;8.724;2022-11-15T09:30:32;11.60;99.90
19892;DHT22;10108;50.142;8.724;2022-11-15T09:33:17;11.70;99.90
19892;DHT22;10108;50.142;8.724;2022-11-15T09:36:04;11.70;99.90
19892;DHT22;10108;50.142;8.724;2022-11-15T09:38:49;11.80;99.90
19892;DHT22;10108;50.142;8.724;2022-11-15T09:42:10;11.80;99.90
19892;DHT22;10108;50.142;8.724;2022-11-15T09:45:21;11.80;99.90
19892;DHT22;10108;50.142;8.724;2022-11-15T09:48:35;11.80;99.90
19892;DHT22;10108;50.142;8.724;2022-11-15T09:51:32;11.80;99.90
19892;DHT22;10108;50.142;8.724;2022-11-15T09:54:04;11.80;99.90
19892;DHT22;10108;50.142;8.724;2022-11-15T09:56:35;11.80;99.90
19892;DHT22;10108;50.142;8.724;2022-11-15T09:59:27;11.80;99.90
19892;DHT22;10108;50.142;8.724;2022-11-15T10:04:46;11.70;99.90
19892;DHT22;10108;50.142;8.724;2022-11-15T10:10:32;11.60;99.90
19892;DHT22;10108;50.142;8.724;2022-11-15T10:13:03;11.60;99.90
19892;DHT22;10108;50.142;8.724;2022-11-15T10:15:29;11.50;99.90
19892;DHT22;10108;50.142;8.724;2022-11-15T10:18:43;11.60;99.90
19892;DHT22;10108;50.142;8.724;2022-11-15T10:20:56;11.60;99.90
19892;DHT22;10108;50.142;8.724;2022-11-15T10:23:24;11.60;99.90
19892;DHT22;10108;50.142;8.724;2022-11-15T10:26:14;11.70;99.90
19892;DHT22;10108;50.142;8.724;2022-11-15T10:28:41;11.70;99.90
19892;DHT22;10108;50.142;8.724;2022-11-15T10:31:33;11.80;99.90
19892;DHT22;10108;50.142;8.724;2022-11-15T10:36:37;11.90;99.90
19892;DHT22;10108;50.142;8.724;2022-11-15T10:39:03;11.90;99.90
19892;DHT22;10108;50.142;8.724;2022-11-15T10:41:30;11.90;99.90
19892;DHT22;10108;50.142;8.724;2022-11-15T10:44:20;11.90;99.90
19892;DHT22;10108;50.142;8.724;2022-11-15T10:51:53;12.10;99.90
19892;DHT22;10108;50.142;8.724;2022-11-15T10:54:47;12.10;99.90
19892;DHT22;10108;50.142;8.724;2022-11-15T10:57:17;12.10;99.90
19892;DHT22;10108;50.142;8.724;2022-11-15T10:59:47;12.10;99.90
19892;DHT22;10108;50.142;8.724;2022-11-15T11:05:01;12.20;99.90
19892;DHT22;10108;50.142;8.724;2022-11-15T11:07:32;12.20;99.90
19892;DHT22;10108;50.142;8.724;2022-11-15T11:10:05;12.20;99.90
19892;DHT22;10108;50.142;8.724;2022-11-15T11:12:42;12.20;99.90
19892;DHT22;10108;50.142;8.724;2022-11-15T11:15:13;12.20;99.90
19892;DHT22;10108;50.142;8.724;2022-11-15T11:18:07;12.20;99.90
19892;DHT22;10108;50.142;8.724;2022-11-15T11:20:53;12.30;99.90
19892;DHT22;10108;50.142;8.724;2022-11-15T11:24:01;12.30;99.90
19892;DHT22;10108;50.142;8.724;2022-11-15T11:30:09;12.30;99.90
19892;DHT22;10108;50.142;8.724;2022-11-15T11:41:15;12.40;99.90
19892;DHT22;10108;50.142;8.724;2022-11-15T11:49:07;12.40;99.90
19892;DHT22;10108;50.142;8.724;2022-11-15T11:51:40;12.40;99.90
19892;DHT22;10108;50.142;8.724;2022-11-15T11:54:24;12.50;99.90
19892;DHT22;10108;50.142;8.724;2022-11-15T11:56:53;12.50;99.90
19892;DHT22;10108;50.142;8.724;2022-11-15T11:59:32;12.60;99.90
19892;DHT22;10108;50.142;8.724;2022-11-15T12:02:14;12.60;99.90
19892;DHT22;10108;50.142;8.724;2022-11-15T12:04:45;12.60;99.90
19892;DHT22;10108;50.142;8.724;2022-11-15T12:07:27;12.60;99.90
19892;DHT22;10108;50.142;8.724;2022-11-15T12:13:00;12.60;99.90
19892;DHT22;10108;50.142;8.724;2022-11-15T12:15:32;12.60;99.90
19892;DHT22;10108;50.142;8.724;2022-11-15T12:18:01;12.70;99.90
19892;DHT22;10108;50.142;8.724;2022-11-15T12:20:32;12.60;99.90
19892;DHT22;10108;50.142;8.724;2022-11-15T12:26:15;12.60;99.90
19892;DHT22;10108;50.142;8.724;2022-11-15T12:31:15;12.70;99.90
19892;DHT22;10108;50.142;8.724;2022-11-15T12:33:44;12.70;99.90
19892;DHT22;10108;50.142;8.724;2022-11-15T12:39:13;12.70;99.90
19892;DHT22;10108;50.142;8.724;2022-11-15T12:41:41;12.70;99.90
19892;DHT22;10108;50.142;8.724;2022-11-15T12:44:58;12.70;99.90
19892;DHT22;10108;50.142;8.724;2022-11-15T12:47:02;12.70;99.90
19892;DHT22;10108;50.142;8.724;2022-11-15T12:59:52;12.70;99.90
19892;DHT22;10108;50.142;8.724;2022-11-15T13:02:38;12.70;99.90
19892;DHT22;10108;50.142;8.724;2022-11-15T13:22:43;12.90;99.90
19892;DHT22;10108;50.142;8.724;2022-11-15T13:25:46;12.80;99.90
19892;DHT22;10108;50.142;8.724;2022-11-15T13:33:25;12.70;99.90
19892;DHT22;10108;50.142;8.724;2022-11-15T13:35:56;12.60;99.90
19892;DHT22;10108;50.142;8.724;2022-11-15T13:40:55;12.60;99.90
19892;DHT22;10108;50.142;8.724;2022-11-15T13:46:10;12.50;99.90
19892;DHT22;10108;50.142;8.724;2022-11-15T13:48:36;12.50;99.90
19892;DHT22;10108;50.142;8.724;2022-11-15T13:51:06;12.50;99.90
19892;DHT22;10108;50.142;8.724;2022-11-15T13:53:36;12.50;99.90
19892;DHT22;10108;50.142;8.724;2022-11-15T13:56:04;12.50;99.90
19892;DHT22;10108;50.142;8.724;2022-11-15T13:58:30;12.40;99.90
19892;DHT22;10108;50.142;8.724;2022-11-15T14:01:02;12.40;99.90
19892;DHT22;10108;50.142;8.724;2022-11-15T14:03:32;12.40;99.90
19892;DHT22;10108;50.142;8.724;2022-11-15T14:08:34;12.40;99.90
19892;DHT22;10108;50.142;8.724;2022-11-15T14:11:18;12.40;99.90
19892;DHT22;10108;50.142;8.724;2022-11-15T14:16:40;12.30;99.90
19892;DHT22;10108;50.142;8.724;2022-11-15T14:19:32;12.30;99.90
19892;DHT22;10108;50.142;8.724;2022-11-15T14:22:19;12.40;99.90
19892;DHT22;10108;50.142;8.724;2022-11-15T14:27:33;12.40;99.90
19892;DHT22;10108;50.142;8.724;2022-11-15T14:30:00;12.40;99.90
19892;DHT22;10108;50.142;8.724;2022-11-15T14:32:47;12.40;99.90
19892;DHT22;10108;50.142;8.724;2022-11-15T14:35:22;12.40;99.90
19892;DHT22;10108;50.142;8.724;2022-11-15T14:37:49;12.40;99.90
19892;DHT22;10108;50.142;8.724;2022-11-15T14:40:20;12.40;99.90
19892;DHT22;10108;50.142;8.724;2022-11-15T14:42:50;12.40;99.90
19892;DHT22;10108;50.142;8.724;2022-11-15T14:45:21;12.40;99.90
19892;DHT22;10108;50.142;8.724;2022-11-15T14:47:47;12.30;99.90
19892;DHT22;10108;50.142;8.724;2022-11-15T14:50:19;12.20;99.90
19892;DHT22;10108;50.142;8.724;2022-11-15T14:52:45;12.10;99.90
19892;DHT22;10108;50.142;8.724;2022-11-15T14:55:21;12.10;99.90
19892;DHT22;10108;50.142;8.724;2022-11-15T14:57:47;12.00;99.90
19892;DHT22;10108;50.142;8.724;2022-11-15T15:00:13;12.00;99.90
19892;DHT22;10108;50.142;8.724;2022-11-15T15:02:41;12.10;99.90
19892;DHT22;10108;50.142;8.724;2022-11-15T15:05:19;12.10;99.90
19892;DHT22;10108;50.142;8.724;2022-11-15T15:07:46;12.10;99.90
19892;DHT22;10108;50.142;8.724;2022-11-15T15:10:13;12.10;99.90
19892;DHT22;10108;50.142;8.724;2022-11-15T15:12:40;12.10;99.90
19892;DHT22;10108;50.142;8.724;2022-11-15T15:15:12;12.10;99.90
19892;DHT22;10108;50.142;8.724;2022-11-15T15:17:39;12.10;99.90
19892;DHT22;10108;50.142;8.724;2022-11-15T15:20:05;12.00;99.90
19892;DHT22;10108;50.142;8.724;2022-11-15T15:22:31;12.00;99.90
19892;DHT22;10108;50.142;8.724;2022-11-15T15:24:58;12.00;99.90
19892;DHT22;10108;50.142;8.724;2022-11-15T15:27:24;12.00;99.90
19892;DHT22;10108;50.142;8.724;2022-11-15T15:29:50;11.90;99.90
19892;DHT22;10108;50.142;8.724;2022-11-15T15:32:16;11.90;99.90
19892;DHT22;10108;50.142;8.724;2022-11-15T15:34:42;11.80;99.90
19892;DHT22;10108;50.142;8.724;2022-11-15T15:37:25;11.80;99.90
19892;DHT22;10108;50.142;8.724;2022-11-15T15:39:55;11.70;99.90
19892;DHT22;10108;50.142;8.724;2022-11-15T15:42:22;11.70;99.90
19892;DHT22;10108;50.142;8.724;2022-11-15T15:44:49;11.70;99.90
19892;DHT22;10108;50.142;8.724;2022-11-15T15:47:21;11.70;99.90
19892;DHT22;10108;50.142;8.724;2022-11-15T15:49:48;11.60;99.90
19892;DHT22;10108;50.142;8.724;2022-11-15T15:52:15;11.60;99.90
19892;DHT22;10108;50.142;8.724;2022-11-15T15:54:42;11.60;99.90
19892;DHT22;10108;50.142;8.724;2022-11-15T15:57:11;11.60;99.90
19892;DHT22;10108;50.142;8.724;2022-11-15T15:59:38;11.60;99.90
19892;DHT22;10108;50.142;8.724;2022-11-15T16:02:04;11.60;99.90
19892;DHT22;10108;50.142;8.724;2022-11-15T16:04:30;11.60;99.90
19892;DHT22;10108;50.142;8.724;2022-11-15T16:07:00;11.70;99.90
19892;DHT22;10108;50.142;8.724;2022-11-15T16:09:26;11.60;99.90
19892;DHT22;10108;50.142;8.724;2022-11-15T16:12:11;11.60;99.90
19892;DHT22;10108;50.142;8.724;2022-11-15T16:14:37;11.60;99.90
19892;DHT22;10108;50.142;8.724;2022-11-15T16:17:03;11.60;99.90
19892;DHT22;10108;50.142;8.724;2022-11-15T16:19:29;11.60;99.90
19892;DHT22;10108;50.142;8.724;2022-11-15T16:21:55;11.60;99.90
19892;DHT22;10108;50.142;8.724;2022-11-15T16:24:22;11.60;99.90
19892;DHT22;10108;50.142;8.724;2022-11-15T16:26:50;11.60;99.90
19892;DHT22;10108;50.142;8.724;2022-11-15T16:29:16;11.60;99.90
19892;DHT22;10108;50.142;8.724;2022-11-15T16:31:43;11.60;99.90
19892;DHT22;10108;50.142;8.724;2022-11-15T16:34:09;11.60;99.90
19892;DHT22;10108;50.142;8.724;2022-11-15T16:36:35;11.60;99.90
19892;DHT22;10108;50.142;8.724;2022-11-15T16:39:02;11.60;99.90
19892;DHT22;10108;50.142;8.724;2022-11-15T16:41:31;11.60;99.90
19892;DHT22;10108;50.142;8.724;2022-11-15T16:43:58;11.60;99.90
19892;DHT22;10108;50.142;8.724;2022-11-15T16:46:26;11.60;99.90
19892;DHT22;10108;50.142;8.724;2022-11-15T16:48:53;11.60;99.90
19892;DHT22;10108;50.142;8.724;2022-11-15T16:51:19;11.60;99.90
19892;DHT22;10108;50.142;8.724;2022-11-15T16:53:45;11.60;99.90
19892;DHT22;10108;50.142;8.724;2022-11-15T16:56:29;11.60;99.90
19892;DHT22;10108;50.142;8.724;2022-11-15T16:58:57;11.60;99.90
19892;DHT22;10108;50.142;8.724;2022-11-15T17:01:25;11.60;99.90
19892;DHT22;10108;50.142;8.724;2022-11-15T17:03:52;11.60;99.90
19892;DHT22;10108;50.142;8.724;2022-11-15T17:06:20;11.60;99.90
19892;DHT22;10108;50.142;8.724;2022-11-15T17:08:47;11.60;99.90
19892;DHT22;10108;50.142;8.724;2022-11-15T17:11:16;11.60;99.90
19892;DHT22;10108;50.142;8.724;2022-11-15T17:13:42;11.60;99.90
19892;DHT22;10108;50.142;8.724;2022-11-15T17:16:11;11.60;99.90
19892;DHT22;10108;50.142;8.724;2022-11-15T17:18:39;11.60;99.90
19892;DHT22;10108;50.142;8.724;2022-11-15T17:21:16;11.50;99.90
19892;DHT22;10108;50.142;8.724;2022-11-15T17:23:43;11.50;99.90
19892;DHT22;10108;50.142;8.724;2022-11-15T17:26:11;11.50;99.90
19892;DHT22;10108;50.142;8.724;2022-11-15T17:28:37;11.50;99.90
19892;DHT22;10108;50.142;8.724;2022-11-15T17:31:09;11.50;99.90
19892;DHT22;10108;50.142;8.724;2022-11-15T17:33:37;11.50;99.90
19892;DHT22;10108;50.142;8.724;2022-11-15T17:36:06;11.50;99.90
19892;DHT22;10108;50.142;8.724;2022-11-15T17:38:33;11.50;99.90
19892;DHT22;10108;50.142;8.724;2022-11-15T17:41:04;11.50;99.90
19892;DHT22;10108;50.142;8.724;2022-11-15T17:43:32;11.50;99.90
19892;DHT22;10108;50.142;8.724;2022-11-15T17:45:59;11.50;99.90
19892;DHT22;10108;50.142;8.724;2022-11-15T17:48:29;11.50;99.90
19892;DHT22;10108;50.142;8.724;2022-11-15T17:50:56;11.60;99.90
19892;DHT22;10108;50.142;8.724;2022-11-15T17:53:24;11.60;99.90
19892;DHT22;10108;50.142;8.724;2022-11-15T17:55:50;11.60;99.90
19892;DHT22;10108;50.142;8.724;2022-11-15T17:58:16;11.60;99.90
19892;DHT22;10108;50.142;8.724;2022-11-15T18:00:46;11.60;99.90
19892;DHT22;10108;50.142;8.724;2022-11-15T18:03:13;11.60;99.90
19892;DHT22;10108;50.142;8.724;2022-11-15T18:05:40;11.60;99.90
19892;DHT22;10108;50.142;8.724;2022-11-15T18:08:10;11.60;99.90
19892;DHT22;10108;50.142;8.724;2022-11-15T18:10:36;11.70;99.90
19892;DHT22;10108;50.142;8.724;2022-11-15T18:13:03;11.70;99.90
19892;DHT22;10108;50.142;8.724;2022-11-15T18:15:29;11.70;99.90
19892;DHT22;10108;50.142;8.724;2022-11-15T18:17:55;11.70;99.90
19892;DHT22;10108;50.142;8.724;2022-11-15T18:20:21;11.70;99.90
19892;DHT22;10108;50.142;8.724;2022-11-15T18:22:47;11.70;99.90
19892;DHT22;10108;50.142;8.724;2022-11-15T18:25:13;11.70;99.90
19892;DHT22;10108;50.142;8.724;2022-11-15T18:27:41;11.70;99.90
19892;DHT22;10108;50.142;8.724;2022-11-15T18:30:08;11.70;99.90
19892;DHT22;10108;50.142;8.724;2022-11-15T18:32:34;11.70;99.90
19892;DHT22;10108;50.142;8.724;2022-11-15T18:35:00;11.70;99.90
19892;DHT22;10108;50.142;8.724;2022-11-15T18:37:26;11.70;99.90
19892;DHT22;10108;50.142;8.724;2022-11-15T18:39:52;11.70;99.90
19892;DHT22;10108;50.142;8.724;2022-11-15T18:42:18;11.70;99.90
19892;DHT22;10108;50.142;8.724;2022-11-15T18:44:44;11.70;99.90
19892;DHT22;10108;50.142;8.724;2022-11-15T18:47:10;11.70;99.90